createdAt,value
2018-05-29T00:01:18.883Z,99.99
2018-05-29T00:02:40.942Z,99.99
2018-05-29T00:04:03.003Z,99.99
2018-05-29T00:05:25.054Z,99.99
2018-05-29T00:06:47.095Z,99.99
2018-05-29T00:08:09.140Z,99.99
2018-05-29T00:09:31.182Z,99.99
2018-05-29T00:10:52.959Z,99.99
2018-05-29T00:12:15.002Z,99.99
2018-05-29T00:13:37.034Z,99.99
2018-05-29T00:14:59.073Z,99.99
2018-05-29T00:16:20.859Z,99.99
2018-05-29T00:17:42.911Z,99.99
2018-05-29T00:19:04.697Z,99.99
2018-05-29T00:20:26.740Z,99.99
2018-05-29T00:21:48.514Z,99.99
2018-05-29T00:23:10.545Z,99.99
2018-05-29T00:24:32.589Z,99.99
2018-05-29T00:25:54.637Z,99.99
2018-05-29T00:27:16.167Z,99.99
2018-05-29T00:28:38.248Z,99.99
2018-05-29T00:30:00.294Z,99.99
2018-05-29T00:31:22.341Z,99.99
2018-05-29T00:32:44.129Z,99.99
2018-05-29T00:34:05.903Z,99.99
2018-05-29T00:35:27.960Z,99.99
2018-05-29T00:36:50.029Z,99.99
2018-05-29T00:38:12.109Z,99.99
2018-05-29T00:39:34.147Z,99.99
2018-05-29T00:40:55.667Z,99.99
2018-05-29T00:42:17.453Z,99.99
2018-05-29T00:43:39.235Z,99.99
2018-05-29T00:45:01.272Z,99.99
2018-05-29T00:46:23.057Z,99.99
2018-05-29T00:47:44.830Z,99.99
2018-05-29T00:49:06.604Z,99.99
2018-05-29T00:50:28.646Z,99.99
2018-05-29T00:51:50.430Z,99.99
2018-05-29T00:53:12.206Z,99.99
2018-05-29T00:54:33.983Z,99.99
2018-05-29T00:55:56.039Z,99.99
2018-05-29T00:57:18.078Z,99.99
2018-05-29T00:58:39.877Z,99.99
2018-05-29T01:00:01.663Z,99.99
2018-05-29T01:01:23.455Z,99.99
2018-05-29T01:02:45.544Z,99.99
2018-05-29T01:04:07.638Z,99.99
2018-05-29T01:05:29.729Z,99.99
2018-05-29T01:06:51.515Z,99.99
2018-05-29T01:08:13.587Z,99.99
2018-05-29T01:09:35.367Z,99.99
2018-05-29T01:10:57.150Z,99.99
2018-05-29T01:12:18.937Z,99.99
2018-05-29T01:13:40.794Z,99.99
2018-05-29T01:15:02.578Z,99.99
2018-05-29T01:16:24.367Z,99.99
2018-05-29T01:17:46.461Z,99.99
2018-05-29T01:19:08.509Z,99.99
2018-05-29T01:20:30.567Z,99.99
2018-05-29T01:21:52.610Z,99.99
2018-05-29T01:23:14.657Z,99.99
2018-05-29T01:24:36.448Z,99.99
2018-05-29T01:25:58.238Z,99.99
2018-05-29T01:27:20.082Z,99.99
2018-05-29T01:28:41.864Z,99.99
2018-05-29T01:30:03.697Z,99.99
2018-05-29T01:31:25.729Z,99.99
2018-05-29T01:32:47.781Z,99.99
2018-05-29T01:34:09.554Z,99.99
2018-05-29T01:35:31.657Z,99.99
2018-05-29T01:36:53.439Z,99.99
2018-05-29T01:38:15.478Z,99.99
2018-05-29T01:39:37.520Z,99.99
2018-05-29T01:40:59.569Z,99.99
2018-05-29T01:42:21.361Z,99.99
2018-05-29T01:43:42.874Z,99.99
2018-05-29T01:45:04.647Z,99.99
2018-05-29T01:46:26.678Z,99.99
2018-05-29T01:47:48.461Z,99.99
2018-05-29T01:49:09.975Z,99.99
2018-05-29T01:50:32.020Z,99.99
2018-05-29T01:51:54.064Z,99.99
2018-05-29T01:53:16.110Z,99.99
2018-05-29T01:54:37.643Z,99.99
2018-05-29T01:55:59.684Z,99.99
2018-05-29T01:57:21.480Z,99.99
2018-05-29T01:58:43.527Z,99.99
2018-05-29T02:00:05.317Z,99.99
2018-05-29T02:01:26.828Z,99.99
2018-05-29T02:02:48.876Z,99.99
2018-05-29T02:04:10.662Z,99.99
2018-05-29T02:05:32.966Z,99.99
2018-05-29T02:06:55.014Z,99.99
2018-05-29T02:08:17.080Z,99.99
2018-05-29T02:09:38.860Z,99.99
2018-05-29T02:11:00.120Z,99.99
2018-05-29T02:12:22.161Z,99.99
2018-05-29T02:13:44.198Z,99.99
2018-05-29T02:15:06.249Z,99.99
2018-05-29T02:16:28.027Z,99.99
2018-05-29T02:17:50.065Z,99.99
2018-05-29T02:19:11.845Z,99.99
2018-05-29T02:20:33.419Z,99.99
2018-05-29T02:21:55.194Z,99.99
2018-05-29T02:23:17.258Z,99.99
2018-05-29T02:24:39.286Z,99.99
2018-05-29T02:26:01.335Z,99.99
2018-05-29T02:27:23.366Z,99.99
2018-05-29T02:28:45.146Z,99.99
2018-05-29T02:30:06.668Z,99.99
2018-05-29T02:31:28.459Z,99.99
2018-05-29T02:32:50.235Z,99.99
2018-05-29T02:34:12.293Z,99.99
2018-05-29T02:35:34.347Z,99.99
2018-05-29T02:36:56.403Z,99.99
2018-05-29T02:38:18.216Z,99.99
2018-05-29T02:39:40.271Z,99.99
2018-05-29T02:41:02.057Z,99.99
2018-05-29T02:42:24.109Z,99.99
2018-05-29T02:43:46.129Z,99.99
2018-05-29T02:45:08.173Z,99.99
2018-05-29T02:46:30.221Z,99.99
2018-05-29T02:47:52.265Z,99.99
2018-05-29T02:49:14.315Z,99.99
2018-05-29T02:50:36.360Z,99.99
2018-05-29T02:51:58.414Z,99.99
2018-05-29T02:53:20.478Z,99.99
2018-05-29T02:54:42.261Z,99.99
2018-05-29T02:56:04.039Z,99.99
2018-05-29T02:57:25.823Z,99.99
2018-05-29T02:58:47.930Z,99.99
2018-05-29T03:00:09.714Z,99.99
2018-05-29T03:01:31.747Z,99.99
2018-05-29T03:02:53.521Z,99.99
2018-05-29T03:04:15.563Z,99.99
2018-05-29T03:05:37.353Z,99.99
2018-05-29T03:06:59.133Z,99.99
2018-05-29T03:08:21.161Z,99.99
2018-05-29T03:09:42.933Z,99.99
2018-05-29T03:11:04.447Z,99.99
2018-05-29T03:12:26.500Z,99.99
2018-05-29T03:13:48.285Z,99.99
2018-05-29T03:15:10.064Z,99.99
2018-05-29T03:16:31.586Z,99.99
2018-05-29T03:17:53.108Z,99.99
2018-05-29T03:19:15.160Z,99.99
2018-05-29T03:20:37.211Z,99.99
2018-05-29T03:21:58.724Z,99.99
2018-05-29T03:23:20.505Z,99.99
2018-05-29T03:24:42.542Z,99.99
2018-05-29T03:26:04.588Z,99.99
2018-05-29T03:27:26.637Z,99.99
2018-05-29T03:28:48.686Z,99.99
2018-05-29T03:30:10.724Z,99.99
2018-05-29T03:31:32.512Z,99.99
2018-05-29T03:32:54.562Z,99.99
2018-05-29T03:34:16.614Z,99.99
2018-05-29T03:35:38.782Z,99.99
2018-05-29T03:37:00.827Z,99.99
2018-05-29T03:38:22.880Z,99.99
2018-05-29T03:39:44.666Z,99.99
2018-05-29T03:41:06.448Z,99.99
2018-05-29T03:42:28.508Z,99.99
2018-05-29T03:43:50.547Z,99.99
2018-05-29T03:45:12.595Z,99.99
2018-05-29T03:46:34.363Z,99.99
2018-05-29T03:47:56.412Z,99.99
2018-05-29T03:49:18.207Z,99.99
2018-05-29T03:50:39.991Z,99.99
2018-05-29T03:52:01.770Z,99.99
2018-05-29T03:53:23.831Z,99.99
2018-05-29T03:54:45.882Z,99.99
2018-05-29T03:56:07.659Z,99.99
2018-05-29T03:57:29.442Z,99.99
2018-05-29T03:58:51.508Z,99.99
2018-05-29T04:00:13.595Z,99.99
2018-05-29T04:01:35.388Z,99.99
2018-05-29T04:02:57.424Z,99.99
2018-05-29T04:04:19.482Z,99.99
2018-05-29T04:05:41.599Z,99.99
2018-05-29T04:07:03.366Z,99.99
2018-05-29T04:08:25.407Z,99.99
2018-05-29T04:09:47.449Z,99.99
2018-05-29T04:11:09.321Z,99.99
2018-05-29T04:12:31.359Z,99.99
2018-05-29T04:13:53.386Z,99.99
2018-05-29T04:15:15.445Z,99.99
2018-05-29T04:16:36.968Z,99.99
2018-05-29T04:17:58.750Z,99.99
2018-05-29T04:19:20.801Z,99.99
2018-05-29T04:20:42.838Z,99.99
2018-05-29T04:22:04.887Z,99.99
2018-05-29T04:23:26.914Z,99.99
2018-05-29T04:24:48.962Z,99.99
2018-05-29T04:26:10.483Z,99.99
2018-05-29T04:27:32.007Z,99.99
2018-05-29T04:28:53.808Z,99.99
2018-05-29T04:30:15.604Z,99.99
2018-05-29T04:31:37.132Z,99.99
2018-05-29T04:32:59.175Z,99.99
2018-05-29T04:34:20.969Z,99.99
2018-05-29T04:35:43.043Z,99.99
2018-05-29T04:37:05.092Z,99.99
2018-05-29T04:38:27.128Z,99.99
2018-05-29T04:39:48.381Z,99.99
2018-05-29T04:41:10.466Z,99.99
2018-05-29T04:42:32.521Z,99.99
2018-05-29T04:43:54.308Z,99.99
2018-05-29T04:45:16.103Z,99.99
2018-05-29T04:46:38.140Z,99.99
2018-05-29T04:48:00.181Z,99.99
2018-05-29T04:49:22.237Z,99.99
2018-05-29T04:50:44.357Z,99.99
2018-05-29T04:52:06.142Z,99.99
2018-05-29T04:53:28.202Z,99.99
2018-05-29T04:54:49.986Z,99.99
2018-05-29T04:56:11.771Z,99.99
2018-05-29T04:57:33.831Z,99.99
2018-05-29T04:58:55.884Z,99.99
2018-05-29T05:00:17.936Z,98.44
2018-05-29T05:01:39.721Z,96.84
2018-05-29T05:03:01.761Z,95.33
2018-05-29T05:04:23.822Z,92.75
2018-05-29T05:05:45.880Z,90.41
2018-05-29T05:07:07.917Z,89.48
2018-05-29T05:08:29.953Z,90.46
2018-05-29T05:09:51.744Z,90.17
2018-05-29T05:11:13.274Z,87.98
2018-05-29T05:12:35.072Z,85.92
2018-05-29T05:13:56.864Z,86.25
2018-05-29T05:15:18.651Z,83.53
2018-05-29T05:16:40.721Z,82.75
2018-05-29T05:18:02.766Z,85.08
2018-05-29T05:19:24.819Z,85.39
2018-05-29T05:20:46.875Z,84.61
2018-05-29T05:22:08.938Z,82.94
2018-05-29T05:23:30.991Z,80.74
2018-05-29T05:24:52.917Z,80.43
2018-05-29T05:26:14.975Z,79.55
2018-05-29T05:27:36.773Z,78.32
2018-05-29T05:28:58.830Z,78.91
2018-05-29T05:30:20.902Z,78.77
2018-05-29T05:31:42.954Z,80.43
2018-05-29T05:33:04.769Z,80.1
2018-05-29T05:34:26.828Z,78.13
2018-05-29T05:35:48.626Z,76.67
2018-05-29T05:37:10.678Z,77.61
2018-05-29T05:38:32.725Z,77.58
2018-05-29T05:39:54.787Z,74.91
2018-05-29T05:41:16.848Z,73.38
2018-05-29T05:42:38.906Z,72.28
2018-05-29T05:44:00.982Z,70.65
2018-05-29T05:45:23.054Z,69.31
2018-05-29T05:46:44.581Z,71.21
2018-05-29T05:48:06.126Z,70.61
2018-05-29T05:49:27.909Z,68.72
2018-05-29T05:50:49.718Z,68.46
2018-05-29T05:52:11.791Z,66.66
2018-05-29T05:53:33.581Z,65.48
2018-05-29T05:54:55.625Z,64.47
2018-05-29T05:56:17.151Z,65.12
2018-05-29T05:57:38.928Z,66.04
2018-05-29T05:59:00.270Z,64.7
2018-05-29T06:00:22.332Z,62.53
2018-05-29T06:01:44.396Z,61.44
2018-05-29T06:03:06.199Z,60.05
2018-05-29T06:04:28.270Z,62.16
2018-05-29T06:05:50.076Z,60.92
2018-05-29T06:07:12.284Z,60.29
2018-05-29T06:08:34.210Z,58.97
2018-05-29T06:09:56.022Z,59.92
2018-05-29T06:11:18.122Z,59.03
2018-05-29T06:12:39.919Z,58.34
2018-05-29T06:14:01.978Z,58.67
2018-05-29T06:15:24.037Z,58.61
2018-05-29T06:16:46.116Z,56.7
2018-05-29T06:18:07.928Z,57.22
2018-05-29T06:19:29.988Z,57.78
2018-05-29T06:20:52.043Z,57.59
2018-05-29T06:22:14.094Z,57.68
2018-05-29T06:23:36.159Z,56.33
2018-05-29T06:24:58.220Z,56.92
2018-05-29T06:26:20.318Z,56.85
2018-05-29T06:27:42.383Z,56.63
2018-05-29T06:29:04.447Z,54.88
2018-05-29T06:30:26.270Z,55.13
2018-05-29T06:31:48.328Z,53.38
2018-05-29T06:33:10.382Z,54.1
2018-05-29T06:34:32.192Z,54.39
2018-05-29T06:35:54.245Z,54.76
2018-05-29T06:37:15.794Z,55.3
2018-05-29T06:38:37.650Z,55.4
2018-05-29T06:39:59.791Z,55.35
2018-05-29T06:41:21.850Z,56.16
2018-05-29T06:42:43.380Z,55.49
2018-05-29T06:44:05.435Z,54.11
2018-05-29T06:45:27.503Z,54.36
2018-05-29T06:46:49.580Z,54.76
2018-05-29T06:48:11.639Z,54.44
2018-05-29T06:49:33.431Z,54.63
2018-05-29T06:50:55.030Z,55.1
2018-05-29T06:52:17.089Z,55.15
2018-05-29T06:53:39.239Z,54.24
2018-05-29T06:55:01.298Z,53.7
2018-05-29T06:56:23.362Z,52.96
2018-05-29T06:57:45.456Z,53.53
2018-05-29T06:59:07.614Z,55.26
2018-05-29T07:00:29.688Z,56.29
2018-05-29T07:01:51.771Z,57.28
2018-05-29T07:03:13.592Z,55.24
2018-05-29T07:04:35.657Z,53.35
2018-05-29T07:05:57.726Z,52.44
2018-05-29T07:07:19.847Z,52.07
2018-05-29T07:08:41.366Z,51.15
2018-05-29T07:10:03.431Z,51.75
2018-05-29T07:11:25.244Z,52.07
2018-05-29T07:12:47.331Z,51.45
2018-05-29T07:14:09.397Z,51.72
2018-05-29T07:15:31.457Z,53.63
2018-05-29T07:16:53.516Z,53.92
2018-05-29T07:18:15.583Z,53.57
2018-05-29T07:19:37.392Z,53
2018-05-29T07:20:59.589Z,54.86
2018-05-29T07:22:21.663Z,56.58
2018-05-29T07:23:42.937Z,56.8
2018-05-29T07:25:05.008Z,57.59
2018-05-29T07:26:27.091Z,55.22
2018-05-29T07:27:48.902Z,54.41
2018-05-29T07:29:10.735Z,54.24
2018-05-29T07:30:32.545Z,53.4
2018-05-29T07:31:54.608Z,53.16
2018-05-29T07:33:16.674Z,51.77
2018-05-29T07:34:38.742Z,51.82
2018-05-29T07:36:00.534Z,50.28
2018-05-29T07:37:22.065Z,50.33
2018-05-29T07:38:43.863Z,51.84
2018-05-29T07:40:05.806Z,53
2018-05-29T07:41:27.890Z,53.13
2018-05-29T07:42:49.686Z,51.77
2018-05-29T07:44:11.748Z,51.72
2018-05-29T07:45:33.817Z,55.16
2018-05-29T07:46:55.877Z,53.57
2018-05-29T07:48:17.969Z,53
2018-05-29T07:49:39.529Z,51.77
2018-05-29T07:51:01.340Z,51.15
2018-05-29T07:52:23.418Z,51.6
2018-05-29T07:53:45.481Z,51.92
2018-05-29T07:55:07.304Z,52.91
2018-05-29T07:56:29.108Z,54.94
2018-05-29T07:57:50.936Z,56.31
2018-05-29T07:59:12.738Z,56.04
2018-05-29T08:00:34.543Z,54.8
2018-05-29T08:01:56.342Z,53.6
2018-05-29T08:03:18.149Z,53.95
2018-05-29T08:04:39.957Z,53.72
2018-05-29T08:06:01.776Z,53.82
2018-05-29T08:07:23.601Z,55.55
2018-05-29T08:08:45.414Z,57.47
2018-05-29T08:10:07.490Z,59.14
2018-05-29T08:11:29.549Z,60.39
2018-05-29T08:12:51.605Z,63.06
2018-05-29T08:14:13.660Z,67.09
2018-05-29T08:15:35.727Z,68.2
2018-05-29T08:16:57.531Z,70.32
2018-05-29T08:18:19.062Z,72.21
2018-05-29T08:19:40.904Z,73.74
2018-05-29T08:21:02.963Z,75.43
2018-05-29T08:22:24.490Z,76.21
2018-05-29T08:23:46.556Z,76.95
2018-05-29T08:25:08.627Z,76.95
2018-05-29T08:26:30.693Z,76.91
2018-05-29T08:27:52.742Z,77.95
2018-05-29T08:29:14.017Z,78.34
2018-05-29T08:30:35.820Z,78.44
2018-05-29T08:31:57.621Z,77.85
2018-05-29T08:33:19.667Z,79.22
2018-05-29T08:34:41.760Z,80.35
2018-05-29T08:36:03.811Z,79.8
2018-05-29T08:37:25.620Z,79.51
2018-05-29T08:38:47.699Z,79.22
2018-05-29T08:40:09.764Z,78.08
2018-05-29T08:41:31.571Z,77.79
2018-05-29T08:42:53.381Z,79.12
2018-05-29T08:44:15.180Z,79.32
2018-05-29T08:45:36.962Z,80.58
2018-05-29T08:46:58.746Z,81.32
2018-05-29T08:48:20.816Z,81.48
2018-05-29T08:49:42.863Z,81.67
2018-05-29T08:51:04.930Z,81.42
2018-05-29T08:52:26.988Z,81.23
2018-05-29T08:53:49.062Z,80.88
2018-05-29T08:55:11.118Z,80.64
2018-05-29T08:56:32.896Z,81.07
2018-05-29T08:57:54.462Z,79.61
2018-05-29T08:59:16.517Z,79.8
2018-05-29T09:00:38.582Z,80
2018-05-29T09:02:00.389Z,79.8
2018-05-29T09:03:22.202Z,80
2018-05-29T09:04:44.251Z,79.55
2018-05-29T09:06:06.317Z,78.96
2018-05-29T09:07:28.116Z,79.45
2018-05-29T09:08:50.184Z,79.74
2018-05-29T09:10:12.242Z,80.39
2018-05-29T09:11:34.302Z,78.63
2018-05-29T09:12:56.239Z,78.05
2018-05-29T09:14:18.334Z,78.08
2018-05-29T09:15:40.137Z,77.59
2018-05-29T09:17:02.187Z,77.83
2018-05-29T09:18:24.234Z,76.86
2018-05-29T09:19:46.067Z,76.95
2018-05-29T09:21:08.250Z,77.34
2018-05-29T09:22:30.302Z,77.64
2018-05-29T09:23:52.378Z,77.87
2018-05-29T09:25:13.666Z,76.79
2018-05-29T09:26:35.747Z,77.73
2018-05-29T09:27:57.817Z,77.59
2018-05-29T09:29:19.368Z,77.34
2018-05-29T09:30:41.193Z,76.95
2018-05-29T09:32:03.346Z,76.11
2018-05-29T09:33:24.905Z,76.01
2018-05-29T09:34:46.970Z,76.86
2018-05-29T09:36:09.028Z,77.44
2018-05-29T09:37:31.186Z,76.89
2018-05-29T09:38:53.240Z,77.05
2018-05-29T09:40:15.120Z,76.86
2018-05-29T09:41:37.005Z,76.6
2018-05-29T09:42:58.350Z,75.62
2018-05-29T09:44:20.422Z,74.05
2018-05-29T09:45:42.511Z,74.25
2018-05-29T09:47:04.837Z,74.54
2018-05-29T09:48:27.033Z,73.5
2018-05-29T09:49:49.079Z,72.43
2018-05-29T09:51:11.154Z,72.72
2018-05-29T09:52:32.964Z,72.82
2018-05-29T09:53:55.087Z,72.92
2018-05-29T09:55:17.168Z,72.72
2018-05-29T09:56:38.954Z,73.02
2018-05-29T09:58:00.996Z,72.66
2018-05-29T09:59:22.790Z,72.02
2018-05-29T10:00:44.588Z,71.42
2018-05-29T10:02:06.663Z,72.41
2018-05-29T10:03:28.748Z,72.47
2018-05-29T10:04:50.820Z,71.88
2018-05-29T10:06:12.936Z,71.81
2018-05-29T10:07:34.726Z,70.45
2018-05-29T10:08:56.795Z,68.88
2018-05-29T10:10:18.594Z,68.19
2018-05-29T10:11:40.676Z,69.57
2018-05-29T10:13:02.739Z,68
2018-05-29T10:14:24.995Z,67.84
2018-05-29T10:15:46.520Z,66.37
2018-05-29T10:17:08.187Z,66.56
2018-05-29T10:18:30.314Z,66.17
2018-05-29T10:19:52.385Z,66.14
2018-05-29T10:21:14.442Z,66.24
2018-05-29T10:22:36.494Z,66.63
2018-05-29T10:23:58.553Z,66.66
2018-05-29T10:25:20.368Z,66.08
2018-05-29T10:26:42.418Z,66.05
2018-05-29T10:28:04.473Z,66.05
2018-05-29T10:29:26.264Z,66.24
2018-05-29T10:30:48.380Z,66.24
2018-05-29T10:32:09.984Z,66.73
2018-05-29T10:33:32.028Z,66.63
2018-05-29T10:34:54.084Z,66.73
2018-05-29T10:36:15.349Z,66.27
2018-05-29T10:37:37.140Z,64.61
2018-05-29T10:38:58.944Z,64.51
2018-05-29T10:40:20.743Z,65.45
2018-05-29T10:41:42.821Z,66.53
2018-05-29T10:43:04.873Z,66.11
2018-05-29T10:44:26.433Z,66.2
2018-05-29T10:45:48.276Z,64.84
2018-05-29T10:47:10.445Z,66.3
2018-05-29T10:48:32.509Z,66.14
2018-05-29T10:49:54.579Z,64.28
2018-05-29T10:51:16.128Z,64.87
2018-05-29T10:52:38.331Z,65.36
2018-05-29T10:54:00.121Z,65.36
2018-05-29T10:55:22.170Z,65.3
2018-05-29T10:56:44.250Z,64.51
2018-05-29T10:58:06.325Z,64.87
2018-05-29T10:59:28.129Z,64.87
2018-05-29T11:00:49.929Z,65.62
2018-05-29T11:02:11.747Z,65.03
2018-05-29T11:03:33.564Z,65.03
2018-05-29T11:04:55.635Z,65.03
2018-05-29T11:06:17.723Z,65.13
2018-05-29T11:07:39.785Z,64.38
2018-05-29T11:09:01.862Z,63.34
2018-05-29T11:10:23.921Z,62.58
2018-05-29T11:11:45.989Z,62.19
2018-05-29T11:13:08.058Z,61.93
2018-05-29T11:14:30.122Z,62.71
2018-05-29T11:15:52.183Z,61.93
2018-05-29T11:17:14.241Z,61.73
2018-05-29T11:18:36.040Z,61.07
2018-05-29T11:19:58.104Z,59.92
2018-05-29T11:21:20.352Z,59.14
2018-05-29T11:22:42.171Z,59.14
2018-05-29T11:24:03.709Z,59.53
2018-05-29T11:25:25.770Z,60.32
2018-05-29T11:26:47.843Z,60.81
2018-05-29T11:28:09.644Z,61.37
2018-05-29T11:29:31.210Z,62.15
2018-05-29T11:30:53.256Z,61.57
2018-05-29T11:32:15.090Z,61.57
2018-05-29T11:33:37.144Z,62.64
2018-05-29T11:34:59.210Z,62.81
2018-05-29T11:36:21.270Z,63.01
2018-05-29T11:37:42.833Z,63.98
2018-05-29T11:39:04.896Z,63.27
2018-05-29T11:40:26.974Z,62.88
2018-05-29T11:41:49.045Z,63.43
2018-05-29T11:43:11.122Z,63.43
2018-05-29T11:44:32.940Z,62.65
2018-05-29T11:45:55.003Z,63.37
2018-05-29T11:47:16.812Z,61.93
2018-05-29T11:48:39.033Z,61.63
2018-05-29T11:50:01.104Z,61.47
2018-05-29T11:51:22.913Z,62.12
2018-05-29T11:52:45.007Z,62.22
2018-05-29T11:54:07.078Z,63.1
2018-05-29T11:55:28.600Z,62.02
2018-05-29T11:56:50.145Z,62.81
2018-05-29T11:58:12.214Z,62.88
2018-05-29T11:59:34.295Z,63.07
2018-05-29T12:00:56.352Z,62.48
2018-05-29T12:02:18.426Z,62.78
2018-05-29T12:03:40.493Z,63.27
2018-05-29T12:05:02.553Z,62.88
2018-05-29T12:06:24.632Z,63.07
2018-05-29T12:07:45.902Z,62.78
2018-05-29T12:09:07.721Z,62.85
2018-05-29T12:10:29.800Z,63.34
2018-05-29T12:11:51.858Z,62.16
2018-05-29T12:13:13.668Z,61.6
2018-05-29T12:14:35.729Z,62.12
2018-05-29T12:15:57.789Z,61.76
2018-05-29T12:17:19.336Z,61.66
2018-05-29T12:18:41.383Z,62.15
2018-05-29T12:20:03.176Z,62.05
2018-05-29T12:21:24.965Z,62.91
2018-05-29T12:22:47.032Z,61.63
2018-05-29T12:24:08.844Z,61.93
2018-05-29T12:25:30.900Z,62.02
2018-05-29T12:26:52.947Z,62.22
2018-05-29T12:28:15.206Z,61.05
2018-05-29T12:29:37.507Z,61.51
2018-05-29T12:30:59.326Z,61.6
2018-05-29T12:32:21.417Z,61.96
2018-05-29T12:33:43.500Z,61.67
2018-05-29T12:35:05.554Z,62.85
2018-05-29T12:36:27.355Z,61.21
2018-05-29T12:37:49.148Z,60.42
2018-05-29T12:39:10.943Z,60.63
2018-05-29T12:40:32.757Z,60.33
2018-05-29T12:41:54.819Z,58.96
2018-05-29T12:43:16.636Z,59.28
2018-05-29T12:44:38.732Z,57.48
2018-05-29T12:46:00.810Z,57.21
2018-05-29T12:47:22.527Z,57.14
2018-05-29T12:48:44.595Z,56.38
2018-05-29T12:50:06.489Z,55.6
2018-05-29T12:51:28.304Z,54.71
2018-05-29T12:52:49.873Z,54.58
2018-05-29T12:54:11.412Z,54.52
2018-05-29T12:55:33.238Z,55.03
2018-05-29T12:56:55.294Z,54.47
2018-05-29T12:58:17.101Z,54.27
2018-05-29T12:59:38.664Z,54.37
2018-05-29T13:01:00.210Z,54.37
2018-05-29T13:02:21.535Z,55.3
2018-05-29T13:03:43.350Z,56.23
2018-05-29T13:05:05.408Z,55.44
2018-05-29T13:06:27.485Z,54.49
2018-05-29T13:07:49.289Z,55.2
2018-05-29T13:09:11.111Z,55.57
2018-05-29T13:10:32.944Z,54.58
2018-05-29T13:11:54.758Z,55.54
2018-05-29T13:13:16.572Z,55.51
2018-05-29T13:14:38.416Z,55.64
2018-05-29T13:16:00.513Z,55.93
2018-05-29T13:17:22.588Z,56.23
2018-05-29T13:18:44.419Z,55.18
2018-05-29T13:20:06.489Z,55.2
2018-05-29T13:21:28.305Z,55.69
2018-05-29T13:22:50.368Z,55.47
2018-05-29T13:24:12.177Z,56.32
2018-05-29T13:25:33.471Z,57.45
2018-05-29T13:26:55.544Z,57.84
2018-05-29T13:28:17.481Z,56.96
2018-05-29T13:29:39.564Z,56.79
2018-05-29T13:31:01.648Z,55.22
2018-05-29T13:32:23.713Z,56.1
2018-05-29T13:33:45.632Z,54.95
2018-05-29T13:35:07.443Z,55.51
2018-05-29T13:36:29.697Z,55.64
2018-05-29T13:37:51.521Z,54.46
2018-05-29T13:39:13.654Z,53.41
2018-05-29T13:40:35.727Z,53.6
2018-05-29T13:41:57.564Z,54.41
2018-05-29T13:43:19.626Z,54.68
2018-05-29T13:44:41.459Z,54.52
2018-05-29T13:46:03.547Z,54.22
2018-05-29T13:47:25.345Z,54.64
2018-05-29T13:48:47.179Z,55.66
2018-05-29T13:50:09.224Z,55.86
2018-05-29T13:51:30.516Z,56.65
2018-05-29T13:52:52.624Z,56.72
2018-05-29T13:54:14.460Z,57.87
2018-05-29T13:55:36.349Z,57.84
2018-05-29T13:56:58.426Z,58.4
2018-05-29T13:58:20.492Z,58.79
2018-05-29T13:59:42.292Z,58.67
2018-05-29T14:01:04.111Z,58.98
2018-05-29T14:02:26.225Z,58.14
2018-05-29T14:03:48.308Z,58.82
2018-05-29T14:05:10.394Z,58.92
2018-05-29T14:06:32.195Z,59.11
2018-05-29T14:07:54.261Z,59.01
2018-05-29T14:09:16.325Z,59.21
2018-05-29T14:10:38.150Z,59.31
2018-05-29T14:12:00.238Z,59.61
2018-05-29T14:13:21.781Z,58.79
2018-05-29T14:14:43.334Z,58.5
2018-05-29T14:16:05.597Z,58.92
2018-05-29T14:17:27.683Z,59.01
2018-05-29T14:18:49.528Z,59.19
2018-05-29T14:20:11.151Z,59.08
2018-05-29T14:21:33.219Z,58.5
2018-05-29T14:22:54.780Z,58.53
2018-05-29T14:24:16.856Z,58.98
2018-05-29T14:25:38.688Z,59.25
2018-05-29T14:27:00.496Z,58.96
2018-05-29T14:28:22.574Z,59.06
2018-05-29T14:29:44.371Z,59.16
2018-05-29T14:31:06.197Z,58.47
2018-05-29T14:32:28.008Z,57.32
2018-05-29T14:33:50.076Z,57.22
2018-05-29T14:35:11.877Z,57.74
2018-05-29T14:36:33.723Z,57.74
2018-05-29T14:37:55.778Z,56.98
2018-05-29T14:39:17.862Z,57.48
2018-05-29T14:40:39.929Z,56.49
2018-05-29T14:42:01.735Z,57.35
2018-05-29T14:43:23.806Z,57.64
2018-05-29T14:44:45.930Z,58.5
2018-05-29T14:46:08.013Z,59.16
2018-05-29T14:47:29.846Z,59.12
2018-05-29T14:48:51.921Z,59.61
2018-05-29T14:50:14.000Z,59.32
2018-05-29T14:51:35.805Z,60.86
2018-05-29T14:52:57.628Z,60.57
2018-05-29T14:54:19.693Z,60.57
2018-05-29T14:55:41.503Z,59.59
2018-05-29T14:57:03.307Z,60.47
2018-05-29T14:58:25.390Z,59.98
2018-05-29T14:59:47.237Z,60.05
2018-05-29T15:01:09.299Z,60.05
2018-05-29T15:02:31.124Z,59.36
2018-05-29T15:03:53.204Z,59.17
2018-05-29T15:05:15.258Z,58.97
2018-05-29T15:06:37.347Z,59.07
2018-05-29T15:07:59.420Z,58.58
2018-05-29T15:09:21.483Z,59.36
2018-05-29T15:10:43.565Z,58.58
2018-05-29T15:12:05.401Z,58.58
2018-05-29T15:13:27.485Z,58.58
2018-05-29T15:14:49.323Z,58.38
2018-05-29T15:16:11.120Z,58.61
2018-05-29T15:17:33.196Z,58.41
2018-05-29T15:18:55.013Z,57.26
2018-05-29T15:20:16.820Z,57.36
2018-05-29T15:21:38.884Z,57.17
2018-05-29T15:23:00.729Z,56.68
2018-05-29T15:24:22.803Z,56.38
2018-05-29T15:25:44.702Z,56.48
2018-05-29T15:27:06.812Z,57.26
2018-05-29T15:28:28.657Z,56.19
2018-05-29T15:29:50.729Z,56.36
2018-05-29T15:31:12.569Z,55.38
2018-05-29T15:32:34.129Z,54.5
2018-05-29T15:33:55.948Z,54.6
2018-05-29T15:35:17.760Z,54.99
2018-05-29T15:36:39.832Z,54.4
2018-05-29T15:38:01.384Z,54.69
2018-05-29T15:39:22.930Z,54.21
2018-05-29T15:40:45.108Z,54.79
2018-05-29T15:42:07.318Z,54.5
2018-05-29T15:43:29.387Z,54.6
2018-05-29T15:44:51.217Z,54.43
2018-05-29T15:46:13.333Z,53.16
2018-05-29T15:47:35.412Z,51.98
2018-05-29T15:48:57.507Z,52.37
2018-05-29T15:50:19.335Z,52.86
2018-05-29T15:51:41.431Z,53.16
2018-05-29T15:53:03.554Z,53.16
2018-05-29T15:54:25.762Z,53.38
2018-05-29T15:55:47.860Z,52.4
2018-05-29T15:57:09.932Z,51.71
2018-05-29T15:58:32.039Z,51.22
2018-05-29T15:59:53.637Z,52
2018-05-29T16:01:15.847Z,52.1
2018-05-29T16:02:37.675Z,51.22
2018-05-29T16:03:59.731Z,51.22
2018-05-29T16:05:21.804Z,51.61
2018-05-29T16:06:43.877Z,51.42
2018-05-29T16:08:05.423Z,51.9
2018-05-29T16:09:27.245Z,52.4
2018-05-29T16:10:49.348Z,51.88
2018-05-29T16:12:11.410Z,51.61
2018-05-29T16:13:33.243Z,51.42
2018-05-29T16:14:55.333Z,51.78
2018-05-29T16:16:17.135Z,51.68
2018-05-29T16:17:39.218Z,51
2018-05-29T16:19:01.368Z,50.81
2018-05-29T16:20:23.480Z,51.39
2018-05-29T16:21:45.545Z,51.39
2018-05-29T16:23:07.356Z,51.88
2018-05-29T16:24:29.172Z,52.15
2018-05-29T16:25:51.251Z,51.86
2018-05-29T16:27:13.336Z,52.05
2018-05-29T16:28:34.898Z,51.76
2018-05-29T16:29:56.703Z,51.86
2018-05-29T16:31:18.808Z,51.46
2018-05-29T16:32:40.924Z,51.86
2018-05-29T16:34:02.739Z,50.98
2018-05-29T16:35:24.833Z,51.07
2018-05-29T16:36:46.903Z,51.15
2018-05-29T16:38:08.964Z,51.83
2018-05-29T16:39:31.074Z,52.03
2018-05-29T16:40:52.930Z,51.81
2018-05-29T16:42:15.014Z,51.71
2018-05-29T16:43:36.840Z,52.47
2018-05-29T16:44:58.657Z,52.47
2018-05-29T16:46:20.743Z,52.37
2018-05-29T16:47:42.582Z,51.88
2018-05-29T16:49:04.704Z,51.88
2018-05-29T16:50:26.576Z,51.68
2018-05-29T16:51:48.655Z,50.9
2018-05-29T16:53:10.764Z,50.9
2018-05-29T16:54:32.621Z,50.61
2018-05-29T16:55:54.205Z,51.29
2018-05-29T16:57:15.800Z,51.2
2018-05-29T16:58:37.636Z,51.03
2018-05-29T16:59:59.472Z,51.29
2018-05-29T17:01:21.569Z,50.9
2018-05-29T17:02:43.419Z,51.49
2018-05-29T17:04:05.512Z,51.78
2018-05-29T17:05:27.399Z,51.1
2018-05-29T17:06:49.500Z,51.39
2018-05-29T17:08:11.595Z,51.88
2018-05-29T17:09:33.671Z,52.66
2018-05-29T17:10:55.805Z,52.95
2018-05-29T17:12:17.703Z,52.47
2018-05-29T17:13:39.918Z,53.05
2018-05-29T17:15:01.866Z,52.66
2018-05-29T17:16:23.746Z,53.05
2018-05-29T17:17:45.921Z,53.15
2018-05-29T17:19:08.128Z,53.13
2018-05-29T17:20:30.377Z,53.81
2018-05-29T17:21:52.660Z,53.71
2018-05-29T17:23:14.628Z,53.91
2018-05-29T17:24:36.823Z,54.2
2018-05-29T17:25:59.107Z,54.3
2018-05-29T17:27:21.062Z,54.27
2018-05-29T17:28:43.081Z,54.46
2018-05-29T17:30:04.745Z,55.15
2018-05-29T17:31:26.725Z,55.24
2018-05-29T17:32:48.960Z,55.63
2018-05-29T17:34:10.934Z,56.22
2018-05-29T17:35:33.243Z,56.61
2018-05-29T17:36:55.632Z,56.1
2018-05-29T17:38:17.980Z,56.38
2018-05-29T17:39:40.045Z,55.32